createdAt,value
2018-05-17T00:00:06.266Z,15.60
2018-05-17T00:02:36.191Z,15.60
2018-05-17T00:05:04.515Z,15.60
2018-05-17T00:07:32.717Z,15.70
2018-05-17T00:10:03.908Z,15.70
2018-05-17T00:12:32.055Z,15.70
2018-05-17T00:15:02.480Z,15.70
2018-05-17T00:17:30.312Z,15.50
2018-05-17T00:20:00.746Z,15.50
2018-05-17T00:22:28.291Z,15.50
2018-05-17T00:24:56.476Z,15.60
2018-05-17T00:27:26.026Z,15.50
2018-05-17T00:29:55.084Z,15.50
2018-05-17T00:32:23.555Z,15.50
2018-05-17T00:34:54.636Z,15.40
2018-05-17T00:37:25.119Z,15.40
2018-05-17T00:39:53.188Z,15.40
2018-05-17T00:42:21.426Z,15.30
2018-05-17T00:44:50.110Z,15.30
2018-05-17T00:47:18.903Z,15.20
2018-05-17T00:49:47.010Z,15.10
2018-05-17T00:52:16.645Z,15.10
2018-05-17T00:54:46.593Z,15.10
2018-05-17T00:57:14.854Z,15.20
2018-05-17T00:59:45.778Z,15.10
2018-05-17T01:02:13.302Z,15.00
2018-05-17T01:04:41.534Z,14.90
2018-05-17T01:07:10.190Z,14.90
2018-05-17T01:09:39.115Z,14.90
2018-05-17T01:12:07.973Z,14.80
2018-05-17T01:14:37.265Z,14.90
2018-05-17T01:17:05.957Z,14.90
2018-05-17T01:19:34.373Z,14.90
2018-05-17T01:22:04.847Z,15.00
2018-05-17T01:24:34.197Z,15.00
2018-05-17T01:27:02.885Z,14.90
2018-05-17T01:29:31.931Z,14.90
2018-05-17T01:32:00.941Z,15.00
2018-05-17T01:34:29.634Z,15.00
2018-05-17T01:37:10.799Z,15.00
2018-05-17T01:39:40.286Z,14.90
2018-05-17T01:42:08.341Z,14.90
2018-05-17T01:44:37.144Z,14.90
2018-05-17T01:47:05.468Z,15.00
2018-05-17T01:49:34.161Z,15.00
2018-05-17T01:52:03.274Z,15.00
2018-05-17T01:54:31.906Z,14.90
2018-05-17T01:57:00.745Z,14.90
2018-05-17T01:59:29.240Z,15.00
2018-05-17T02:01:58.362Z,14.90
2018-05-17T02:04:27.587Z,15.00
2018-05-17T02:06:55.195Z,15.00
2018-05-17T02:09:24.102Z,15.00
2018-05-17T02:11:53.269Z,15.10
2018-05-17T02:14:21.447Z,15.10
2018-05-17T02:16:50.145Z,15.10
2018-05-17T02:19:19.868Z,15.20
2018-05-17T02:21:47.965Z,15.20
2018-05-17T02:24:16.193Z,15.10
2018-05-17T02:26:44.473Z,15.20
2018-05-17T02:29:13.113Z,15.20
2018-05-17T02:31:41.958Z,15.20
2018-05-17T02:34:10.121Z,14.90
2018-05-17T02:36:38.726Z,14.90
2018-05-17T02:39:07.899Z,14.90
2018-05-17T02:41:36.636Z,14.90
2018-05-17T02:44:06.737Z,14.80
2018-05-17T02:46:34.965Z,14.80
2018-05-17T02:49:04.571Z,14.70
2018-05-17T02:51:33.581Z,14.60
2018-05-17T02:54:02.410Z,14.60
2018-05-17T02:56:31.030Z,14.50
2018-05-17T02:59:00.203Z,14.40
2018-05-17T03:01:29.235Z,14.30
2018-05-17T03:03:57.543Z,14.40
2018-05-17T03:06:26.142Z,14.40
2018-05-17T03:08:54.439Z,14.40
2018-05-17T03:11:22.749Z,14.40
2018-05-17T03:13:51.532Z,14.40
2018-05-17T03:16:19.778Z,14.40
2018-05-17T03:18:49.053Z,14.50
2018-05-17T03:21:17.311Z,14.40
2018-05-17T03:23:46.717Z,14.40
2018-05-17T03:26:15.486Z,14.40
2018-05-17T03:28:43.909Z,14.40
2018-05-17T03:31:14.117Z,14.40
2018-05-17T03:33:42.294Z,14.50
2018-05-17T03:36:11.192Z,14.50
2018-05-17T03:38:39.528Z,14.50
2018-05-17T03:41:09.368Z,14.50
2018-05-17T03:43:38.268Z,14.60
2018-05-17T03:46:06.430Z,14.60
2018-05-17T03:48:35.967Z,14.70
2018-05-17T03:51:04.931Z,14.70
2018-05-17T03:53:34.814Z,14.60
2018-05-17T03:56:02.406Z,14.60
2018-05-17T03:58:30.441Z,14.60
2018-05-17T04:01:09.800Z,14.70
2018-05-17T04:03:49.070Z,14.60
2018-05-17T04:06:28.578Z,14.70
2018-05-17T04:08:58.400Z,14.60
2018-05-17T04:11:26.541Z,14.60
2018-05-17T04:13:54.835Z,14.70
2018-05-17T04:16:23.730Z,14.70
2018-05-17T04:18:53.918Z,14.70
2018-05-17T04:21:22.177Z,14.80
2018-05-17T04:23:51.518Z,14.70
2018-05-17T04:26:20.543Z,14.80
2018-05-17T04:28:51.096Z,14.80
2018-05-17T04:31:20.632Z,14.80
2018-05-17T04:33:51.054Z,14.90
2018-05-17T04:36:19.648Z,14.80
2018-05-17T04:38:48.569Z,14.80
2018-05-17T04:41:17.611Z,14.80
2018-05-17T04:43:46.433Z,14.80
2018-05-17T04:46:15.824Z,14.90
2018-05-17T04:48:44.999Z,14.90
2018-05-17T04:51:13.513Z,15.00
2018-05-17T04:53:43.529Z,15.00
2018-05-17T04:56:12.022Z,15.00
2018-05-17T04:58:40.976Z,15.00
2018-05-17T05:14:05.118Z,15.10
2018-05-17T05:16:34.114Z,14.80
2018-05-17T05:19:03.562Z,14.80
2018-05-17T05:21:32.494Z,15.00
2018-05-17T05:24:01.542Z,15.00
2018-05-17T05:26:31.189Z,15.00
2018-05-17T05:29:00.874Z,15.00
2018-05-17T05:31:31.163Z,15.10
2018-05-17T05:33:59.900Z,15.00
2018-05-17T05:36:28.508Z,15.00
2018-05-17T05:38:57.162Z,15.00
2018-05-17T05:41:26.499Z,15.00
2018-05-17T05:43:55.384Z,15.00
2018-05-17T05:46:25.300Z,15.10
2018-05-17T05:48:55.754Z,15.20
2018-05-17T05:51:24.725Z,15.20
2018-05-17T05:53:53.541Z,15.20
2018-05-17T05:56:21.715Z,15.10
2018-05-17T05:58:50.039Z,15.20
2018-05-17T06:01:18.461Z,15.20
2018-05-17T06:03:47.615Z,15.30
2018-05-17T06:06:16.531Z,15.30
2018-05-17T06:08:44.814Z,15.20
2018-05-17T06:11:14.570Z,15.20
2018-05-17T06:13:44.162Z,15.20
2018-05-17T06:16:12.485Z,15.20
2018-05-17T06:18:41.492Z,15.20
2018-05-17T06:21:09.873Z,15.20
2018-05-17T06:23:38.283Z,15.40
2018-05-17T06:26:07.002Z,15.30
2018-05-17T06:28:35.494Z,15.30
2018-05-17T06:31:04.490Z,15.30
2018-05-17T06:33:33.857Z,15.40
2018-05-17T06:36:03.641Z,15.40
2018-05-17T06:38:31.567Z,15.50
2018-05-17T06:40:59.674Z,15.50
2018-05-17T06:43:28.505Z,15.50
2018-05-17T06:55:42.643Z,15.60
2018-05-17T06:58:13.914Z,15.60
2018-05-17T07:00:43.038Z,15.60
2018-05-17T07:03:11.951Z,15.60
2018-05-17T07:05:40.683Z,15.60
2018-05-17T07:08:09.820Z,15.70
2018-05-17T07:10:38.401Z,15.80
2018-05-17T07:13:07.201Z,15.80
2018-05-17T07:15:36.555Z,15.90
2018-05-17T07:18:05.194Z,15.90
2018-05-17T07:20:33.198Z,15.90
2018-05-17T07:23:01.360Z,15.80
2018-05-17T07:25:29.530Z,15.80
2018-05-17T07:27:58.398Z,15.70
2018-05-17T07:43:22.982Z,15.80
2018-05-17T07:45:51.379Z,15.70
2018-05-17T07:48:19.541Z,15.70
2018-05-17T07:50:49.149Z,15.80
2018-05-17T07:53:17.872Z,15.80
2018-05-17T07:55:46.353Z,15.90
2018-05-17T07:58:16.119Z,15.80
2018-05-17T08:00:44.794Z,15.80
2018-05-17T08:03:13.782Z,15.80
2018-05-17T08:05:42.617Z,15.90
2018-05-17T08:08:12.655Z,15.90
2018-05-17T08:10:42.198Z,15.90
2018-05-17T08:13:10.559Z,15.90
2018-05-17T08:15:38.114Z,15.90
2018-05-17T08:18:07.370Z,16.10
2018-05-17T08:20:35.440Z,16.00
2018-05-17T08:23:05.317Z,16.00
2018-05-17T08:25:35.553Z,16.00
2018-05-17T08:28:04.600Z,16.10
2018-05-17T08:30:34.954Z,16.20
2018-05-17T08:33:03.851Z,16.20
2018-05-17T08:35:32.885Z,16.10
2018-05-17T08:38:00.922Z,16.20
2018-05-17T08:40:30.116Z,16.30
2018-05-17T08:42:58.559Z,16.30
2018-05-17T08:45:26.990Z,16.30
2018-05-17T08:47:55.216Z,16.30
2018-05-17T08:50:23.705Z,16.40
2018-05-17T08:52:52.011Z,16.40
2018-05-17T08:55:22.594Z,16.50
2018-05-17T08:57:52.014Z,16.50
2018-05-17T09:00:20.762Z,16.40
2018-05-17T09:02:49.479Z,16.50
2018-05-17T09:05:18.302Z,16.50
2018-05-17T09:07:48.249Z,16.50
2018-05-17T09:10:16.629Z,16.60
2018-05-17T09:12:44.720Z,16.60
2018-05-17T09:15:15.989Z,16.40
2018-05-17T09:17:46.661Z,16.50
2018-05-17T09:20:16.236Z,16.40
2018-05-17T09:22:45.313Z,16.50
2018-05-17T09:25:16.101Z,16.60
2018-05-17T09:27:44.870Z,16.60
2018-05-17T09:30:13.167Z,16.70
2018-05-17T09:32:42.099Z,16.70
2018-05-17T09:35:12.729Z,16.70
2018-05-17T09:37:41.188Z,16.60
2018-05-17T09:40:10.130Z,16.70
2018-05-17T09:42:38.539Z,16.50
2018-05-17T09:45:07.704Z,16.60
2018-05-17T09:47:35.351Z,16.60
2018-05-17T09:50:03.999Z,16.60
2018-05-17T09:52:32.787Z,16.70
2018-05-17T09:55:00.900Z,16.70
2018-05-17T09:57:28.921Z,16.60
2018-05-17T09:59:56.727Z,16.60
2018-05-17T10:02:24.916Z,16.70
2018-05-17T10:04:52.867Z,16.50
2018-05-17T10:07:21.200Z,16.40
2018-05-17T10:09:50.875Z,16.50
2018-05-17T10:12:19.561Z,16.50
2018-05-17T10:14:49.221Z,16.60
2018-05-17T10:17:17.909Z,16.60
2018-05-17T10:19:47.408Z,16.60
2018-05-17T10:22:16.142Z,16.60
2018-05-17T10:24:44.577Z,16.50
2018-05-17T10:27:12.851Z,16.50
2018-05-17T10:29:41.003Z,16.50
2018-05-17T10:32:09.816Z,16.50
2018-05-17T10:34:39.219Z,16.40
2018-05-17T10:37:07.242Z,16.40
2018-05-17T10:39:39.557Z,16.50
2018-05-17T10:42:07.761Z,16.50
2018-05-17T10:44:37.253Z,16.60
2018-05-17T10:47:06.738Z,16.60
2018-05-17T10:49:34.915Z,16.50
2018-05-17T10:52:03.238Z,16.50
2018-05-17T10:54:31.906Z,16.30
2018-05-17T10:57:01.401Z,16.20
2018-05-17T10:59:30.104Z,16.10
2018-05-17T11:01:59.731Z,16.00
2018-05-17T11:04:28.603Z,15.90
2018-05-17T11:06:56.800Z,15.80
2018-05-17T11:09:27.283Z,15.80
2018-05-17T11:11:55.461Z,15.70
2018-05-17T11:14:23.479Z,15.70
2018-05-17T11:16:52.419Z,15.60
2018-05-17T11:19:21.319Z,15.60
2018-05-17T11:21:50.388Z,15.60
2018-05-17T11:24:19.295Z,15.60
2018-05-17T11:26:47.419Z,15.60
2018-05-17T11:29:16.144Z,15.60
2018-05-17T11:31:44.219Z,15.60
2018-05-17T11:34:12.935Z,15.80
2018-05-17T11:36:43.344Z,15.70
2018-05-17T11:39:11.902Z,15.80
2018-05-17T11:41:39.505Z,15.70
2018-05-17T11:44:08.633Z,15.70
2018-05-17T11:46:38.194Z,15.70
2018-05-17T11:49:07.351Z,15.70
2018-05-17T11:51:36.258Z,15.70
2018-05-17T11:54:05.387Z,15.60
2018-05-17T11:56:34.789Z,15.70
2018-05-17T11:59:03.739Z,15.80
2018-05-17T12:01:32.639Z,15.90
2018-05-17T12:04:01.970Z,15.80
2018-05-17T12:06:32.605Z,15.90
2018-05-17T12:09:00.765Z,15.90
2018-05-17T12:11:29.154Z,15.90
2018-05-17T12:13:57.943Z,15.90
2018-05-17T12:16:26.049Z,15.90
2018-05-17T12:18:54.811Z,15.90
2018-05-17T12:21:22.921Z,15.90
2018-05-17T12:23:51.988Z,16.10
2018-05-17T12:26:21.574Z,16.10
2018-05-17T12:28:49.138Z,16.00
2018-05-17T12:31:19.700Z,16.10
2018-05-17T12:33:49.771Z,16.30
2018-05-17T12:36:18.096Z,16.20
2018-05-17T12:48:27.549Z,16.20
2018-05-17T12:50:55.237Z,16.00
2018-05-17T13:03:09.350Z,16.10
2018-05-17T13:05:38.654Z,16.20
2018-05-17T13:08:06.701Z,16.20
2018-05-17T13:10:35.857Z,16.20
2018-05-17T13:13:04.148Z,16.20
2018-05-17T13:15:32.258Z,16.40
2018-05-17T13:18:01.467Z,16.50
2018-05-17T13:20:29.476Z,16.50
2018-05-17T13:22:57.766Z,16.50
2018-05-17T13:25:25.351Z,16.50
2018-05-17T13:27:55.274Z,16.60
2018-05-17T13:30:24.330Z,16.60
2018-05-17T13:32:52.906Z,16.60
2018-05-17T13:35:22.961Z,16.60
2018-05-17T13:37:52.035Z,16.60
2018-05-17T13:40:20.163Z,16.60
2018-05-17T13:42:49.456Z,16.60
2018-05-17T13:45:18.006Z,16.50
2018-05-17T13:47:46.998Z,16.50
2018-05-17T13:50:16.251Z,16.50
2018-05-17T13:52:45.129Z,16.40
2018-05-17T13:55:14.143Z,16.50
2018-05-17T13:57:42.598Z,16.50
2018-05-17T14:00:10.998Z,16.50
2018-05-17T14:02:41.093Z,16.50
2018-05-17T14:05:17.239Z,16.40
2018-05-17T14:07:45.298Z,16.40
2018-05-17T14:10:14.224Z,16.30
2018-05-17T14:12:44.016Z,16.30
2018-05-17T14:15:13.262Z,16.40
2018-05-17T14:17:42.230Z,16.40
2018-05-17T14:20:11.559Z,16.40
2018-05-17T14:22:41.000Z,16.40
2018-05-17T14:25:08.558Z,16.30
2018-05-17T14:27:38.004Z,16.20
2018-05-17T14:30:07.463Z,16.20
2018-05-17T14:32:37.418Z,16.20
2018-05-17T14:35:07.789Z,16.20
2018-05-17T14:37:35.841Z,16.20
2018-05-17T14:40:03.689Z,16.30
2018-05-17T14:42:32.133Z,16.40
2018-05-17T14:45:00.994Z,16.30
2018-05-17T14:47:29.152Z,16.40
2018-05-17T14:49:57.988Z,16.50
2018-05-17T14:52:26.149Z,16.60
2018-05-17T14:54:55.270Z,16.70
2018-05-17T14:57:25.036Z,16.60
2018-05-17T14:59:53.109Z,16.70
2018-05-17T15:02:21.351Z,16.80
2018-05-17T15:04:51.643Z,17.00
2018-05-17T15:07:22.080Z,17.10
2018-05-17T15:09:50.426Z,17.10
2018-05-17T15:12:18.569Z,17.10
2018-05-17T15:14:47.888Z,17.10
2018-05-17T15:17:17.530Z,16.80
2018-05-17T15:19:47.026Z,16.80
2018-05-17T15:22:16.144Z,16.80
2018-05-17T15:24:45.137Z,16.80
2018-05-17T15:27:13.440Z,16.70
2018-05-17T15:29:42.449Z,16.70
2018-05-17T15:32:10.706Z,16.80
2018-05-17T15:34:40.709Z,16.70
2018-05-17T15:37:09.624Z,16.70
2018-05-17T15:39:38.700Z,16.80
2018-05-17T15:42:06.407Z,16.90
2018-05-17T15:44:34.729Z,17.00
2018-05-17T15:47:03.145Z,17.00
2018-05-17T15:49:31.795Z,17.10
2018-05-17T15:52:00.831Z,17.00
2018-05-17T15:54:29.225Z,17.10
2018-05-17T15:56:57.977Z,17.10
2018-05-17T15:59:26.216Z,17.10
2018-05-17T16:01:54.897Z,17.00
2018-05-17T16:04:22.678Z,16.90
2018-05-17T16:06:50.234Z,16.90
2018-05-17T16:09:19.267Z,16.90
2018-05-17T16:11:49.794Z,16.90
2018-05-17T16:14:18.259Z,16.80
2018-05-17T16:16:45.843Z,16.80
2018-05-17T16:19:15.408Z,16.80
2018-05-17T16:21:43.742Z,16.70
2018-05-17T16:24:12.125Z,16.70
2018-05-17T16:26:40.502Z,16.70
2018-05-17T16:29:10.406Z,16.50
2018-05-17T16:31:39.286Z,16.50
2018-05-17T16:34:08.202Z,16.50
2018-05-17T16:36:36.654Z,16.50
2018-05-17T16:39:07.109Z,16.50
2018-05-17T16:41:36.063Z,16.40
2018-05-17T16:44:05.004Z,16.50
2018-05-17T16:46:34.168Z,16.40
2018-05-17T16:49:01.990Z,16.40
2018-05-17T16:51:31.719Z,16.40
2018-05-17T16:54:02.212Z,16.40
2018-05-17T16:56:32.446Z,16.40
2018-05-17T16:59:01.240Z,16.40
2018-05-17T17:01:31.283Z,16.40
2018-05-17T17:03:59.906Z,16.40
2018-05-17T17:06:29.228Z,16.40
2018-05-17T17:08:58.284Z,16.40
2018-05-17T17:11:26.751Z,16.40
2018-05-17T17:13:55.762Z,16.40
2018-05-17T17:16:23.317Z,16.50
2018-05-17T17:18:53.317Z,16.30
2018-05-17T17:21:23.574Z,16.40
2018-05-17T17:23:51.231Z,16.30
2018-05-17T17:26:20.127Z,16.40
2018-05-17T17:28:48.557Z,16.30
2018-05-17T17:31:16.947Z,16.30
2018-05-17T17:33:46.028Z,16.30
2018-05-17T17:36:15.041Z,16.30
2018-05-17T17:38:43.876Z,16.30
2018-05-17T17:41:12.970Z,16.30
2018-05-17T17:43:41.115Z,16.30
2018-05-17T17:46:10.583Z,16.30
2018-05-17T17:48:39.506Z,16.20
2018-05-17T17:51:09.302Z,16.20
2018-05-17T17:53:39.043Z,16.20
2018-05-17T17:56:07.722Z,16.20
2018-05-17T17:58:36.234Z,16.10
2018-05-17T18:01:06.226Z,16.20
2018-05-17T18:03:34.870Z,16.30
2018-05-17T18:06:03.219Z,16.20
2018-05-17T18:08:32.321Z,16.20
2018-05-17T18:11:00.875Z,16.30
2018-05-17T18:13:30.299Z,16.20
2018-05-17T18:15:59.798Z,16.30
2018-05-17T18:18:28.478Z,16.30
2018-05-17T18:20:58.518Z,16.20
2018-05-17T18:23:28.519Z,16.20
2018-05-17T18:25:58.296Z,16.30
2018-05-17T18:28:27.850Z,16.20
2018-05-17T18:30:57.584Z,16.30
2018-05-17T18:33:25.847Z,16.30
2018-05-17T18:35:55.807Z,16.30
2018-05-17T18:38:24.529Z,16.30
2018-05-17T18:40:53.424Z,16.30
2018-05-17T18:43:22.707Z,16.30
2018-05-17T18:45:51.110Z,16.20
2018-05-17T18:48:20.135Z,16.20
2018-05-17T18:50:49.357Z,16.30
2018-05-17T18:53:18.501Z,16.40
2018-05-17T18:55:47.420Z,16.40
2018-05-17T18:58:17.209Z,16.30
2018-05-17T19:00:46.245Z,16.30
2018-05-17T19:03:15.672Z,16.40
2018-05-17T19:05:43.721Z,16.40
2018-05-17T19:08:13.188Z,16.30
2018-05-17T19:10:42.105Z,16.40
2018-05-17T19:13:11.254Z,16.50
2018-05-17T19:15:39.657Z,16.50
2018-05-17T19:18:08.865Z,16.50
2018-05-17T19:20:37.164Z,16.50
2018-05-17T19:23:05.079Z,16.60
2018-05-17T19:25:33.992Z,16.70
2018-05-17T19:28:04.264Z,16.60
2018-05-17T19:30:35.162Z,16.60
2018-05-17T19:33:02.901Z,16.60
2018-05-17T19:35:32.369Z,16.50
2018-05-17T19:37:59.930Z,16.60
2018-05-17T19:40:27.494Z,16.70
2018-05-17T19:42:55.830Z,16.70
2018-05-17T19:45:26.696Z,16.70
2018-05-17T19:47:56.003Z,16.70
2018-05-17T19:50:25.350Z,16.70
2018-05-17T19:52:55.286Z,16.70
2018-05-17T19:55:24.665Z,16.70
2018-05-17T19:57:54.745Z,16.80
2018-05-17T20:00:25.556Z,16.80
2018-05-17T20:02:55.870Z,16.80
2018-05-17T20:05:25.963Z,16.80
2018-05-17T20:07:55.573Z,16.80
2018-05-17T20:10:24.701Z,16.70
2018-05-17T20:12:53.656Z,16.70
2018-05-17T20:15:23.526Z,16.80
2018-05-17T20:17:54.523Z,16.80
2018-05-17T20:20:22.966Z,16.70
2018-05-17T20:22:51.895Z,16.70
2018-05-17T20:25:20.606Z,16.60
2018-05-17T20:27:49.626Z,16.70
2018-05-17T20:30:19.135Z,16.70
2018-05-17T20:32:49.514Z,16.60
2018-05-17T20:35:18.218Z,16.60
2018-05-17T20:37:48.450Z,16.60
2018-05-17T20:40:17.286Z,16.60
2018-05-17T20:42:48.566Z,16.50
2018-05-17T20:45:17.641Z,16.50
2018-05-17T20:47:46.570Z,16.50
2018-05-17T20:50:26.471Z,16.50
2018-05-17T20:52:55.861Z,16.50
2018-05-17T20:55:26.069Z,16.40
2018-05-17T20:57:54.561Z,16.40
2018-05-17T21:00:23.750Z,16.30
2018-05-17T21:02:53.382Z,16.30
2018-05-17T21:05:23.461Z,16.30
2018-05-17T21:07:52.425Z,16.40
2018-05-17T21:10:21.107Z,16.40
2018-05-17T21:12:50.028Z,16.40
2018-05-17T21:15:18.274Z,16.40
2018-05-17T21:17:47.695Z,16.30
2018-05-17T21:20:16.297Z,16.20
2018-05-17T21:22:44.295Z,16.30
2018-05-17T21:25:13.566Z,16.30
2018-05-17T21:27:43.035Z,16.30
2018-05-17T21:30:11.416Z,16.30
2018-05-17T21:32:39.528Z,16.20
2018-05-17T21:35:09.589Z,16.20
2018-05-17T21:37:38.809Z,16.20
2018-05-17T21:40:08.103Z,16.20
2018-05-17T21:45:16.204Z,16.30
2018-05-17T21:47:46.351Z,16.30
2018-05-17T21:52:51.752Z,16.30
2018-05-17T21:55:25.639Z,16.30
2018-05-17T21:57:54.291Z,16.30
2018-05-17T22:00:24.904Z,16.20
2018-05-17T22:02:54.373Z,16.20
2018-05-17T22:05:24.565Z,16.20
2018-05-17T22:07:55.363Z,16.30
2018-05-17T22:10:25.203Z,16.20
2018-05-17T22:12:53.292Z,16.10
2018-05-17T22:15:22.179Z,16.20
2018-05-17T22:17:53.492Z,16.10
2018-05-17T22:20:24.369Z,16.20
2018-05-17T22:22:54.419Z,16.20
2018-05-17T22:25:31.771Z,16.10
2018-05-17T22:28:01.775Z,16.20
2018-05-17T22:30:30.780Z,16.10
2018-05-17T22:32:58.934Z,16.10
2018-05-17T22:35:28.192Z,16.10
2018-05-17T22:37:57.118Z,16.20
2018-05-17T22:53:19.971Z,16.10
2018-05-17T22:55:48.933Z,15.80
2018-05-17T22:58:28.970Z,15.90
2018-05-17T23:00:57.890Z,15.90
2018-05-17T23:03:27.570Z,16.00
2018-05-17T23:05:57.241Z,16.10
2018-05-17T23:08:27.385Z,16.10
2018-05-17T23:10:55.979Z,16.10
2018-05-17T23:13:24.231Z,16.10
2018-05-17T23:15:53.627Z,16.10
2018-05-17T23:18:23.797Z,16.20
2018-05-17T23:20:54.057Z,16.30
2018-05-17T23:23:24.970Z,16.30
2018-05-17T23:25:54.451Z,16.30
2018-05-17T23:28:22.121Z,16.20
2018-05-17T23:46:53.012Z,16.00
2018-05-17T23:49:25.960Z,16.00
2018-05-17T23:51:55.029Z,16.10
2018-05-17T23:54:23.981Z,16.20
2018-05-17T23:56:52.403Z,16.20
2018-05-17T23:59:22.334Z,16.20
